sensor_id;sensor_type;location;lat;lon;timestamp;P1;durP1;ratioP1;P2;durP2;ratioP2
71969;SDS011;59838;52.152;5.436;2022-11-20T00:01:03;15.27;;;7.07;;
71969;SDS011;59838;52.152;5.436;2022-11-20T00:03:31;19.52;;;7.18;;
71969;SDS011;59838;52.152;5.436;2022-11-20T00:06:01;18.40;;;7.05;;
71969;SDS011;59838;52.152;5.436;2022-11-20T00:08:29;12.55;;;5.45;;
71969;SDS011;59838;52.152;5.436;2022-11-20T00:11:02;16.35;;;6.57;;
71969;SDS011;59838;52.152;5.436;2022-11-20T00:13:42;15.38;;;6.15;;
71969;SDS011;59838;52.152;5.436;2022-11-20T00:16:10;15.65;;;7.45;;
71969;SDS011;59838;52.152;5.436;2022-11-20T00:18:37;15.00;;;6.30;;
71969;SDS011;59838;52.152;5.436;2022-11-20T00:21:05;13.15;;;6.15;;
71969;SDS011;59838;52.152;5.436;2022-11-20T00:23:33;14.85;;;6.45;;
71969;SDS011;59838;52.152;5.436;2022-11-20T00:26:03;12.85;;;5.15;;
71969;SDS011;59838;52.152;5.436;2022-11-20T00:28:34;12.20;;;5.53;;
71969;SDS011;59838;52.152;5.436;2022-11-20T00:31:08;10.70;;;4.43;;
71969;SDS011;59838;52.152;5.436;2022-11-20T00:33:39;15.38;;;5.45;;
71969;SDS011;59838;52.152;5.436;2022-11-20T00:36:07;12.90;;;5.18;;
71969;SDS011;59838;52.152;5.436;2022-11-20T00:38:35;15.85;;;7.47;;
71969;SDS011;59838;52.152;5.436;2022-11-20T00:41:07;13.38;;;5.45;;
71969;SDS011;59838;52.152;5.436;2022-11-20T00:43:34;16.17;;;5.33;;
71969;SDS011;59838;52.152;5.436;2022-11-20T00:46:08;10.80;;;5.38;;
71969;SDS011;59838;52.152;5.436;2022-11-20T00:48:40;10.98;;;5.88;;
71969;SDS011;59838;52.152;5.436;2022-11-20T00:51:06;11.55;;;5.47;;
71969;SDS011;59838;52.152;5.436;2022-11-20T00:53:33;10.95;;;5.18;;
71969;SDS011;59838;52.152;5.436;2022-11-20T00:56:01;10.65;;;5.63;;
71969;SDS011;59838;52.152;5.436;2022-11-20T00:58:30;9.60;;;4.85;;
71969;SDS011;59838;52.152;5.436;2022-11-20T01:01:01;9.63;;;5.45;;
71969;SDS011;59838;52.152;5.436;2022-11-20T01:03:33;12.68;;;5.72;;
71969;SDS011;59838;52.152;5.436;2022-11-20T01:06:08;9.23;;;5.40;;
71969;SDS011;59838;52.152;5.436;2022-11-20T01:08:37;12.73;;;6.00;;
71969;SDS011;59838;52.152;5.436;2022-11-20T01:11:05;8.80;;;5.07;;
71969;SDS011;59838;52.152;5.436;2022-11-20T01:13:34;8.68;;;4.82;;
71969;SDS011;59838;52.152;5.436;2022-11-20T01:16:04;10.45;;;4.90;;
71969;SDS011;59838;52.152;5.436;2022-11-20T01:18:33;13.85;;;6.03;;
71969;SDS011;59838;52.152;5.436;2022-11-20T01:21:07;10.63;;;6.30;;
71969;SDS011;59838;52.152;5.436;2022-11-20T01:23:37;10.75;;;4.63;;
71969;SDS011;59838;52.152;5.436;2022-11-20T01:26:07;13.60;;;5.38;;
71969;SDS011;59838;52.152;5.436;2022-11-20T01:28:35;14.55;;;6.65;;
71969;SDS011;59838;52.152;5.436;2022-11-20T01:31:10;10.60;;;5.80;;
71969;SDS011;59838;52.152;5.436;2022-11-20T01:33:41;11.27;;;5.05;;
71969;SDS011;59838;52.152;5.436;2022-11-20T01:36:09;12.32;;;6.05;;
71969;SDS011;59838;52.152;5.436;2022-11-20T01:38:36;13.02;;;6.25;;
71969;SDS011;59838;52.152;5.436;2022-11-20T01:41:03;14.75;;;7.05;;
71969;SDS011;59838;52.152;5.436;2022-11-20T01:43:30;13.27;;;5.88;;
71969;SDS011;59838;52.152;5.436;2022-11-20T01:46:01;12.43;;;5.90;;
71969;SDS011;59838;52.152;5.436;2022-11-20T01:48:37;8.70;;;4.75;;
71969;SDS011;59838;52.152;5.436;2022-11-20T01:51:10;10.85;;;5.43;;
71969;SDS011;59838;52.152;5.436;2022-11-20T01:53:43;13.05;;;5.93;;
71969;SDS011;59838;52.152;5.436;2022-11-20T01:56:10;11.15;;;5.95;;
71969;SDS011;59838;52.152;5.436;2022-11-20T01:58:42;12.77;;;6.25;;
71969;SDS011;59838;52.152;5.436;2022-11-20T02:01:14;12.68;;;5.18;;
71969;SDS011;59838;52.152;5.436;2022-11-20T02:03:41;16.02;;;5.90;;
71969;SDS011;59838;52.152;5.436;2022-11-20T02:06:14;11.95;;;6.55;;
71969;SDS011;59838;52.152;5.436;2022-11-20T02:08:46;13.35;;;5.80;;
71969;SDS011;59838;52.152;5.436;2022-11-20T02:11:12;13.30;;;6.43;;
71969;SDS011;59838;52.152;5.436;2022-11-20T02:13:39;12.93;;;6.30;;
71969;SDS011;59838;52.152;5.436;2022-11-20T02:16:16;12.27;;;5.45;;
71969;SDS011;59838;52.152;5.436;2022-11-20T02:18:46;14.75;;;6.40;;
71969;SDS011;59838;52.152;5.436;2022-11-20T02:21:15;14.07;;;6.40;;
71969;SDS011;59838;52.152;5.436;2022-11-20T02:24:00;9.63;;;5.10;;
71969;SDS011;59838;52.152;5.436;2022-11-20T02:26:51;14.40;;;5.45;;
71969;SDS011;59838;52.152;5.436;2022-11-20T02:29:26;11.38;;;5.35;;
71969;SDS011;59838;52.152;5.436;2022-11-20T02:31:57;8.82;;;5.55;;
71969;SDS011;59838;52.152;5.436;2022-11-20T02:34:26;10.60;;;4.45;;
71969;SDS011;59838;52.152;5.436;2022-11-20T02:36:52;12.97;;;5.83;;
71969;SDS011;59838;52.152;5.436;2022-11-20T02:39:19;12.50;;;5.20;;
71969;SDS011;59838;52.152;5.436;2022-11-20T02:41:47;13.95;;;6.35;;
71969;SDS011;59838;52.152;5.436;2022-11-20T02:44:13;15.25;;;5.93;;
71969;SDS011;59838;52.152;5.436;2022-11-20T02:46:40;12.98;;;4.90;;
71969;SDS011;59838;52.152;5.436;2022-11-20T02:49:06;14.93;;;6.07;;
71969;SDS011;59838;52.152;5.436;2022-11-20T02:51:33;9.27;;;4.85;;
71969;SDS011;59838;52.152;5.436;2022-11-20T02:53:59;14.32;;;5.10;;
71969;SDS011;59838;52.152;5.436;2022-11-20T02:56:29;11.73;;;5.78;;
71969;SDS011;59838;52.152;5.436;2022-11-20T02:58:55;11.18;;;5.93;;
71969;SDS011;59838;52.152;5.436;2022-11-20T03:01:22;10.07;;;5.13;;
71969;SDS011;59838;52.152;5.436;2022-11-20T03:03:48;8.93;;;5.25;;
71969;SDS011;59838;52.152;5.436;2022-11-20T03:06:15;11.90;;;5.93;;
71969;SDS011;59838;52.152;5.436;2022-11-20T03:08:42;13.80;;;5.05;;
71969;SDS011;59838;52.152;5.436;2022-11-20T03:11:09;10.77;;;5.00;;
71969;SDS011;59838;52.152;5.436;2022-11-20T03:13:36;13.93;;;4.97;;
71969;SDS011;59838;52.152;5.436;2022-11-20T03:16:15;12.80;;;4.75;;
71969;SDS011;59838;52.152;5.436;2022-11-20T03:18:44;11.63;;;4.85;;
71969;SDS011;59838;52.152;5.436;2022-11-20T03:21:11;14.65;;;5.82;;
71969;SDS011;59838;52.152;5.436;2022-11-20T03:23:39;8.32;;;4.18;;
71969;SDS011;59838;52.152;5.436;2022-11-20T03:26:19;10.73;;;5.67;;
71969;SDS011;59838;52.152;5.436;2022-11-20T03:28:49;11.18;;;5.25;;
71969;SDS011;59838;52.152;5.436;2022-11-20T03:31:18;10.18;;;5.05;;
71969;SDS011;59838;52.152;5.436;2022-11-20T03:33:46;11.52;;;4.25;;
71969;SDS011;59838;52.152;5.436;2022-11-20T03:36:13;10.73;;;4.70;;
71969;SDS011;59838;52.152;5.436;2022-11-20T03:38:41;9.25;;;4.53;;
71969;SDS011;59838;52.152;5.436;2022-11-20T03:41:09;8.52;;;4.75;;
71969;SDS011;59838;52.152;5.436;2022-11-20T03:43:40;8.77;;;4.75;;
71969;SDS011;59838;52.152;5.436;2022-11-20T03:46:07;10.60;;;4.75;;
71969;SDS011;59838;52.152;5.436;2022-11-20T03:48:33;11.10;;;5.10;;
71969;SDS011;59838;52.152;5.436;2022-11-20T03:51:07;8.73;;;4.43;;
71969;SDS011;59838;52.152;5.436;2022-11-20T03:53:35;11.90;;;4.20;;
71969;SDS011;59838;52.152;5.436;2022-11-20T03:56:01;11.05;;;4.75;;
71969;SDS011;59838;52.152;5.436;2022-11-20T03:58:28;11.55;;;4.90;;
71969;SDS011;59838;52.152;5.436;2022-11-20T04:00:54;10.40;;;4.55;;
71969;SDS011;59838;52.152;5.436;2022-11-20T04:03:21;8.43;;;4.37;;
71969;SDS011;59838;52.152;5.436;2022-11-20T04:05:47;10.73;;;4.13;;
71969;SDS011;59838;52.152;5.436;2022-11-20T04:08:13;12.35;;;4.72;;
71969;SDS011;59838;52.152;5.436;2022-11-20T04:10:40;10.55;;;4.90;;
71969;SDS011;59838;52.152;5.436;2022-11-20T04:13:06;10.98;;;5.70;;
71969;SDS011;59838;52.152;5.436;2022-11-20T04:15:33;13.70;;;4.95;;
71969;SDS011;59838;52.152;5.436;2022-11-20T04:18:03;13.90;;;5.93;;
71969;SDS011;59838;52.152;5.436;2022-11-20T04:20:30;8.48;;;4.15;;
71969;SDS011;59838;52.152;5.436;2022-11-20T04:22:56;12.68;;;5.30;;
71969;SDS011;59838;52.152;5.436;2022-11-20T04:25:23;8.02;;;4.50;;
71969;SDS011;59838;52.152;5.436;2022-11-20T04:27:49;10.53;;;4.67;;
71969;SDS011;59838;52.152;5.436;2022-11-20T04:30:15;6.80;;;3.63;;
71969;SDS011;59838;52.152;5.436;2022-11-20T04:32:44;11.90;;;4.47;;
71969;SDS011;59838;52.152;5.436;2022-11-20T04:35:11;8.90;;;4.95;;
71969;SDS011;59838;52.152;5.436;2022-11-20T04:37:39;12.68;;;5.57;;
71969;SDS011;59838;52.152;5.436;2022-11-20T04:40:06;9.80;;;4.83;;
71969;SDS011;59838;52.152;5.436;2022-11-20T04:42:33;10.18;;;4.90;;
71969;SDS011;59838;52.152;5.436;2022-11-20T04:44:59;11.70;;;4.50;;
71969;SDS011;59838;52.152;5.436;2022-11-20T04:47:25;8.27;;;4.03;;
71969;SDS011;59838;52.152;5.436;2022-11-20T04:49:52;9.10;;;4.82;;
71969;SDS011;59838;52.152;5.436;2022-11-20T04:52:19;10.13;;;4.50;;
71969;SDS011;59838;52.152;5.436;2022-11-20T04:54:45;14.68;;;5.45;;
71969;SDS011;59838;52.152;5.436;2022-11-20T04:57:12;9.40;;;4.78;;
71969;SDS011;59838;52.152;5.436;2022-11-20T04:59:40;14.32;;;3.92;;
71969;SDS011;59838;52.152;5.436;2022-11-20T05:02:06;10.57;;;5.10;;
71969;SDS011;59838;52.152;5.436;2022-11-20T05:04:33;11.27;;;5.43;;
71969;SDS011;59838;52.152;5.436;2022-11-20T05:06:59;7.78;;;4.32;;
71969;SDS011;59838;52.152;5.436;2022-11-20T05:09:25;13.75;;;4.45;;
71969;SDS011;59838;52.152;5.436;2022-11-20T05:11:52;11.57;;;4.68;;
71969;SDS011;59838;52.152;5.436;2022-11-20T05:14:18;13.27;;;6.82;;
71969;SDS011;59838;52.152;5.436;2022-11-20T05:16:45;10.63;;;5.33;;
71969;SDS011;59838;52.152;5.436;2022-11-20T05:19:11;13.95;;;5.50;;
71969;SDS011;59838;52.152;5.436;2022-11-20T05:21:38;11.27;;;4.85;;
71969;SDS011;59838;52.152;5.436;2022-11-20T05:24:04;12.02;;;4.88;;
71969;SDS011;59838;52.152;5.436;2022-11-20T05:26:31;10.38;;;4.32;;
71969;SDS011;59838;52.152;5.436;2022-11-20T05:28:58;10.53;;;4.63;;
71969;SDS011;59838;52.152;5.436;2022-11-20T05:31:25;8.02;;;4.03;;
71969;SDS011;59838;52.152;5.436;2022-11-20T05:33:53;13.02;;;5.25;;
71969;SDS011;59838;52.152;5.436;2022-11-20T05:36:21;12.27;;;5.25;;
71969;SDS011;59838;52.152;5.436;2022-11-20T05:38:48;9.43;;;4.68;;
71969;SDS011;59838;52.152;5.436;2022-11-20T05:41:17;10.23;;;4.30;;
71969;SDS011;59838;52.152;5.436;2022-11-20T05:43:48;12.18;;;4.53;;
71969;SDS011;59838;52.152;5.436;2022-11-20T05:46:16;7.60;;;3.75;;
71969;SDS011;59838;52.152;5.436;2022-11-20T05:48:50;10.00;;;4.75;;
71969;SDS011;59838;52.152;5.436;2022-11-20T05:51:17;9.52;;;4.28;;
71969;SDS011;59838;52.152;5.436;2022-11-20T05:53:44;8.23;;;3.57;;
71969;SDS011;59838;52.152;5.436;2022-11-20T05:56:15;8.63;;;4.20;;
71969;SDS011;59838;52.152;5.436;2022-11-20T05:58:43;10.10;;;4.32;;
71969;SDS011;59838;52.152;5.436;2022-11-20T06:01:14;14.45;;;5.68;;
71969;SDS011;59838;52.152;5.436;2022-11-20T06:03:43;8.10;;;4.45;;
71969;SDS011;59838;52.152;5.436;2022-11-20T06:06:14;7.83;;;3.87;;
71969;SDS011;59838;52.152;5.436;2022-11-20T06:08:41;10.48;;;4.38;;
71969;SDS011;59838;52.152;5.436;2022-11-20T06:11:08;8.73;;;3.88;;
71969;SDS011;59838;52.152;5.436;2022-11-20T06:13:38;6.53;;;4.00;;
71969;SDS011;59838;52.152;5.436;2022-11-20T06:16:08;9.23;;;4.15;;
71969;SDS011;59838;52.152;5.436;2022-11-20T06:18:35;9.47;;;3.83;;
71969;SDS011;59838;52.152;5.436;2022-11-20T06:21:06;6.97;;;3.58;;
71969;SDS011;59838;52.152;5.436;2022-11-20T06:23:34;8.77;;;4.78;;
71969;SDS011;59838;52.152;5.436;2022-11-20T06:26:06;11.65;;;4.28;;
71969;SDS011;59838;52.152;5.436;2022-11-20T06:28:34;8.70;;;4.32;;
71969;SDS011;59838;52.152;5.436;2022-11-20T06:31:01;11.07;;;3.77;;
71969;SDS011;59838;52.152;5.436;2022-11-20T06:33:28;6.00;;;3.10;;
71969;SDS011;59838;52.152;5.436;2022-11-20T06:35:58;15.45;;;5.45;;
71969;SDS011;59838;52.152;5.436;2022-11-20T06:38:35;6.43;;;4.05;;
71969;SDS011;59838;52.152;5.436;2022-11-20T06:41:02;10.25;;;4.13;;
71969;SDS011;59838;52.152;5.436;2022-11-20T06:43:29;7.87;;;4.03;;
71969;SDS011;59838;52.152;5.436;2022-11-20T06:45:56;7.07;;;3.90;;
71969;SDS011;59838;52.152;5.436;2022-11-20T06:48:24;7.75;;;4.05;;
71969;SDS011;59838;52.152;5.436;2022-11-20T06:50:52;12.30;;;3.90;;
71969;SDS011;59838;52.152;5.436;2022-11-20T06:53:18;11.52;;;4.60;;
71969;SDS011;59838;52.152;5.436;2022-11-20T06:55:45;12.53;;;5.07;;
71969;SDS011;59838;52.152;5.436;2022-11-20T06:58:13;6.18;;;3.40;;
71969;SDS011;59838;52.152;5.436;2022-11-20T07:00:41;7.70;;;3.95;;
71969;SDS011;59838;52.152;5.436;2022-11-20T07:03:09;10.07;;;4.38;;
71969;SDS011;59838;52.152;5.436;2022-11-20T07:05:37;7.30;;;4.68;;
71969;SDS011;59838;52.152;5.436;2022-11-20T07:08:04;11.13;;;4.77;;
71969;SDS011;59838;52.152;5.436;2022-11-20T07:10:31;10.77;;;4.40;;
71969;SDS011;59838;52.152;5.436;2022-11-20T07:12:57;7.15;;;3.65;;
71969;SDS011;59838;52.152;5.436;2022-11-20T07:15:24;12.00;;;4.72;;
71969;SDS011;59838;52.152;5.436;2022-11-20T07:17:51;12.13;;;4.25;;
71969;SDS011;59838;52.152;5.436;2022-11-20T07:20:18;9.02;;;4.22;;
71969;SDS011;59838;52.152;5.436;2022-11-20T07:22:44;8.55;;;4.82;;
71969;SDS011;59838;52.152;5.436;2022-11-20T07:25:11;11.80;;;5.18;;
71969;SDS011;59838;52.152;5.436;2022-11-20T07:27:37;7.90;;;3.70;;
71969;SDS011;59838;52.152;5.436;2022-11-20T07:30:04;8.38;;;4.30;;
71969;SDS011;59838;52.152;5.436;2022-11-20T07:32:31;7.83;;;3.67;;
71969;SDS011;59838;52.152;5.436;2022-11-20T07:34:57;9.68;;;4.15;;
71969;SDS011;59838;52.152;5.436;2022-11-20T07:37:26;15.00;;;6.82;;
71969;SDS011;59838;52.152;5.436;2022-11-20T07:39:54;16.33;;;5.85;;
71969;SDS011;59838;52.152;5.436;2022-11-20T07:42:20;12.25;;;4.57;;
71969;SDS011;59838;52.152;5.436;2022-11-20T07:44:46;9.93;;;5.00;;
71969;SDS011;59838;52.152;5.436;2022-11-20T07:47:13;8.25;;;4.75;;
71969;SDS011;59838;52.152;5.436;2022-11-20T07:49:39;10.50;;;4.95;;
71969;SDS011;59838;52.152;5.436;2022-11-20T07:52:06;11.88;;;4.85;;
71969;SDS011;59838;52.152;5.436;2022-11-20T07:54:32;10.73;;;5.60;;
71969;SDS011;59838;52.152;5.436;2022-11-20T07:56:59;10.97;;;4.63;;
71969;SDS011;59838;52.152;5.436;2022-11-20T07:59:25;13.13;;;6.05;;
71969;SDS011;59838;52.152;5.436;2022-11-20T08:01:52;10.20;;;4.50;;
71969;SDS011;59838;52.152;5.436;2022-11-20T08:04:18;12.30;;;5.45;;
71969;SDS011;59838;52.152;5.436;2022-11-20T08:06:44;15.00;;;5.70;;
71969;SDS011;59838;52.152;5.436;2022-11-20T08:09:11;13.53;;;5.47;;
71969;SDS011;59838;52.152;5.436;2022-11-20T08:11:37;13.15;;;5.38;;
71969;SDS011;59838;52.152;5.436;2022-11-20T08:14:23;12.90;;;6.03;;
71969;SDS011;59838;52.152;5.436;2022-11-20T08:16:50;17.45;;;6.90;;
71969;SDS011;59838;52.152;5.436;2022-11-20T08:19:17;17.83;;;7.10;;
71969;SDS011;59838;52.152;5.436;2022-11-20T08:21:45;14.33;;;5.77;;
71969;SDS011;59838;52.152;5.436;2022-11-20T08:24:11;21.65;;;6.47;;
71969;SDS011;59838;52.152;5.436;2022-11-20T08:26:38;11.15;;;5.88;;
71969;SDS011;59838;52.152;5.436;2022-11-20T08:29:06;15.23;;;6.82;;
71969;SDS011;59838;52.152;5.436;2022-11-20T08:31:32;15.65;;;6.47;;
71969;SDS011;59838;52.152;5.436;2022-11-20T08:33:59;11.35;;;5.43;;
71969;SDS011;59838;52.152;5.436;2022-11-20T08:36:32;13.45;;;6.20;;
71969;SDS011;59838;52.152;5.436;2022-11-20T08:39:00;11.18;;;5.78;;
71969;SDS011;59838;52.152;5.436;2022-11-20T08:41:26;12.88;;;5.80;;
71969;SDS011;59838;52.152;5.436;2022-11-20T08:43:54;14.23;;;6.22;;
71969;SDS011;59838;52.152;5.436;2022-11-20T08:46:26;17.13;;;6.50;;
71969;SDS011;59838;52.152;5.436;2022-11-20T08:48:58;11.85;;;6.10;;
71969;SDS011;59838;52.152;5.436;2022-11-20T08:51:24;12.82;;;6.47;;
71969;SDS011;59838;52.152;5.436;2022-11-20T08:53:50;12.65;;;6.47;;
71969;SDS011;59838;52.152;5.436;2022-11-20T08:56:17;13.50;;;6.40;;
71969;SDS011;59838;52.152;5.436;2022-11-20T08:58:44;18.98;;;5.97;;
71969;SDS011;59838;52.152;5.436;2022-11-20T09:01:30;13.98;;;6.60;;
71969;SDS011;59838;52.152;5.436;2022-11-20T09:03:57;16.50;;;6.18;;
71969;SDS011;59838;52.152;5.436;2022-11-20T09:06:23;13.10;;;6.78;;
71969;SDS011;59838;52.152;5.436;2022-11-20T09:08:53;11.60;;;6.45;;
71969;SDS011;59838;52.152;5.436;2022-11-20T09:11:20;10.50;;;5.95;;
71969;SDS011;59838;52.152;5.436;2022-11-20T09:13:47;13.63;;;6.45;;
71969;SDS011;59838;52.152;5.436;2022-11-20T09:16:14;12.43;;;6.82;;
71969;SDS011;59838;52.152;5.436;2022-11-20T09:18:40;17.48;;;8.15;;
71969;SDS011;59838;52.152;5.436;2022-11-20T09:21:09;15.73;;;7.90;;
71969;SDS011;59838;52.152;5.436;2022-11-20T09:23:38;14.98;;;7.53;;
71969;SDS011;59838;52.152;5.436;2022-11-20T09:26:05;16.33;;;7.50;;
71969;SDS011;59838;52.152;5.436;2022-11-20T09:28:35;16.60;;;7.03;;
71969;SDS011;59838;52.152;5.436;2022-11-20T09:31:04;18.08;;;8.82;;
71969;SDS011;59838;52.152;5.436;2022-11-20T09:33:34;12.65;;;7.68;;
71969;SDS011;59838;52.152;5.436;2022-11-20T09:36:01;15.13;;;7.53;;
71969;SDS011;59838;52.152;5.436;2022-11-20T09:38:28;12.75;;;6.60;;
71969;SDS011;59838;52.152;5.436;2022-11-20T09:41:02;16.27;;;8.43;;
71969;SDS011;59838;52.152;5.436;2022-11-20T09:51:58;12.10;;;6.65;;
71969;SDS011;59838;52.152;5.436;2022-11-20T09:54:27;14.77;;;7.93;;
71969;SDS011;59838;52.152;5.436;2022-11-20T09:56:59;13.65;;;7.22;;
71969;SDS011;59838;52.152;5.436;2022-11-20T09:59:43;15.82;;;7.47;;
71969;SDS011;59838;52.152;5.436;2022-11-20T10:07:41;14.63;;;7.32;;
71969;SDS011;59838;52.152;5.436;2022-11-20T10:10:16;13.55;;;7.55;;
71969;SDS011;59838;52.152;5.436;2022-11-20T10:12:55;13.27;;;7.10;;
71969;SDS011;59838;52.152;5.436;2022-11-20T10:15:53;17.80;;;8.40;;
71969;SDS011;59838;52.152;5.436;2022-11-20T10:21:18;13.63;;;7.45;;
71969;SDS011;59838;52.152;5.436;2022-11-20T10:27:13;16.48;;;8.13;;
71969;SDS011;59838;52.152;5.436;2022-11-20T10:29:58;16.88;;;8.02;;
71969;SDS011;59838;52.152;5.436;2022-11-20T10:32:47;16.75;;;8.45;;
71969;SDS011;59838;52.152;5.436;2022-11-20T10:35:27;24.30;;;8.70;;
71969;SDS011;59838;52.152;5.436;2022-11-20T10:38:05;18.23;;;9.27;;
71969;SDS011;59838;52.152;5.436;2022-11-20T10:40:41;16.55;;;8.65;;
71969;SDS011;59838;52.152;5.436;2022-11-20T10:43:32;18.48;;;9.13;;
71969;SDS011;59838;52.152;5.436;2022-11-20T10:46:08;15.55;;;9.13;;
71969;SDS011;59838;52.152;5.436;2022-11-20T10:48:40;19.10;;;9.25;;
71969;SDS011;59838;52.152;5.436;2022-11-20T10:51:15;22.40;;;9.05;;
71969;SDS011;59838;52.152;5.436;2022-11-20T10:53:54;16.33;;;9.63;;
71969;SDS011;59838;52.152;5.436;2022-11-20T11:02:18;18.80;;;8.98;;
71969;SDS011;59838;52.152;5.436;2022-11-20T11:04:50;20.25;;;10.25;;
71969;SDS011;59838;52.152;5.436;2022-11-20T11:07:22;16.83;;;9.25;;
71969;SDS011;59838;52.152;5.436;2022-11-20T11:09:52;21.48;;;9.55;;
71969;SDS011;59838;52.152;5.436;2022-11-20T11:12:20;18.00;;;9.25;;
71969;SDS011;59838;52.152;5.436;2022-11-20T11:14:50;22.75;;;9.88;;
71969;SDS011;59838;52.152;5.436;2022-11-20T11:17:28;21.75;;;8.88;;
71969;SDS011;59838;52.152;5.436;2022-11-20T11:22:42;19.95;;;10.13;;
71969;SDS011;59838;52.152;5.436;2022-11-20T11:25:18;22.42;;;10.43;;
71969;SDS011;59838;52.152;5.436;2022-11-20T11:27:47;21.10;;;10.25;;
71969;SDS011;59838;52.152;5.436;2022-11-20T11:30:15;29.67;;;12.50;;
71969;SDS011;59838;52.152;5.436;2022-11-20T11:32:43;23.17;;;10.30;;
71969;SDS011;59838;52.152;5.436;2022-11-20T11:35:32;26.20;;;11.52;;
71969;SDS011;59838;52.152;5.436;2022-11-20T11:38:02;24.55;;;10.55;;
71969;SDS011;59838;52.152;5.436;2022-11-20T11:40:33;22.30;;;11.18;;
71969;SDS011;59838;52.152;5.436;2022-11-20T11:43:03;25.08;;;11.50;;
71969;SDS011;59838;52.152;5.436;2022-11-20T11:45:52;24.30;;;11.90;;
71969;SDS011;59838;52.152;5.436;2022-11-20T11:48:20;25.33;;;11.57;;
71969;SDS011;59838;52.152;5.436;2022-11-20T11:50:50;24.75;;;12.00;;
71969;SDS011;59838;52.152;5.436;2022-11-20T11:53:18;25.55;;;11.32;;
71969;SDS011;59838;52.152;5.436;2022-11-20T11:55:58;24.25;;;10.85;;
71969;SDS011;59838;52.152;5.436;2022-11-20T11:58:44;25.70;;;11.40;;
71969;SDS011;59838;52.152;5.436;2022-11-20T12:07:14;23.92;;;11.52;;
71969;SDS011;59838;52.152;5.436;2022-11-20T12:10:06;27.05;;;11.68;;
71969;SDS011;59838;52.152;5.436;2022-11-20T12:12:43;28.67;;;12.98;;
71969;SDS011;59838;52.152;5.436;2022-11-20T12:15:16;25.67;;;12.68;;
71969;SDS011;59838;52.152;5.436;2022-11-20T12:17:59;23.50;;;11.13;;
71969;SDS011;59838;52.152;5.436;2022-11-20T12:20:31;31.83;;;13.93;;
71969;SDS011;59838;52.152;5.436;2022-11-20T12:23:09;27.77;;;12.90;;
71969;SDS011;59838;52.152;5.436;2022-11-20T12:26:00;26.52;;;12.20;;
71969;SDS011;59838;52.152;5.436;2022-11-20T12:31:46;29.63;;;12.97;;
71969;SDS011;59838;52.152;5.436;2022-11-20T12:40:20;29.23;;;12.15;;
71969;SDS011;59838;52.152;5.436;2022-11-20T12:43:00;24.00;;;10.40;;
71969;SDS011;59838;52.152;5.436;2022-11-20T12:45:55;23.23;;;11.30;;
71969;SDS011;59838;52.152;5.436;2022-11-20T12:51:26;28.05;;;12.65;;
71969;SDS011;59838;52.152;5.436;2022-11-20T12:59:23;29.48;;;11.88;;
71969;SDS011;59838;52.152;5.436;2022-11-20T13:04:48;28.15;;;12.57;;
71969;SDS011;59838;52.152;5.436;2022-11-20T13:07:29;26.90;;;11.45;;
71969;SDS011;59838;52.152;5.436;2022-11-20T13:09:56;25.27;;;12.35;;
71969;SDS011;59838;52.152;5.436;2022-11-20T13:12:45;35.35;;;16.40;;
71969;SDS011;59838;52.152;5.436;2022-11-20T13:18:08;21.35;;;10.55;;
71969;SDS011;59838;52.152;5.436;2022-11-20T13:20:41;25.05;;;11.18;;
71969;SDS011;59838;52.152;5.436;2022-11-20T13:23:09;21.65;;;10.82;;
71969;SDS011;59838;52.152;5.436;2022-11-20T13:25:37;28.05;;;12.80;;
71969;SDS011;59838;52.152;5.436;2022-11-20T13:30:34;22.02;;;11.65;;
71969;SDS011;59838;52.152;5.436;2022-11-20T13:36:00;24.92;;;11.52;;
71969;SDS011;59838;52.152;5.436;2022-11-20T13:38:49;26.20;;;12.35;;
71969;SDS011;59838;52.152;5.436;2022-11-20T13:43:54;22.90;;;11.70;;
71969;SDS011;59838;52.152;5.436;2022-11-20T13:46:34;22.75;;;11.00;;
71969;SDS011;59838;52.152;5.436;2022-11-20T13:49:06;28.30;;;12.40;;
71969;SDS011;59838;52.152;5.436;2022-11-20T14:00:18;24.98;;;10.75;;
71969;SDS011;59838;52.152;5.436;2022-11-20T14:05:31;21.75;;;10.98;;
71969;SDS011;59838;52.152;5.436;2022-11-20T14:08:02;25.88;;;10.77;;
71969;SDS011;59838;52.152;5.436;2022-11-20T14:10:32;25.17;;;12.30;;
71969;SDS011;59838;52.152;5.436;2022-11-20T14:12:58;25.80;;;10.98;;
71969;SDS011;59838;52.152;5.436;2022-11-20T14:15:36;24.67;;;10.00;;
71969;SDS011;59838;52.152;5.436;2022-11-20T14:18:14;23.77;;;11.48;;
71969;SDS011;59838;52.152;5.436;2022-11-20T14:20:45;30.00;;;12.70;;
71969;SDS011;59838;52.152;5.436;2022-11-20T14:23:12;28.98;;;12.48;;
71969;SDS011;59838;52.152;5.436;2022-11-20T14:25:55;26.77;;;12.18;;
71969;SDS011;59838;52.152;5.436;2022-11-20T14:28:25;29.55;;;12.88;;
71969;SDS011;59838;52.152;5.436;2022-11-20T14:30:53;31.13;;;13.45;;
71969;SDS011;59838;52.152;5.436;2022-11-20T14:33:21;31.08;;;13.25;;
71969;SDS011;59838;52.152;5.436;2022-11-20T14:35:54;29.38;;;12.10;;
71969;SDS011;59838;52.152;5.436;2022-11-20T14:38:24;28.90;;;12.73;;
71969;SDS011;59838;52.152;5.436;2022-11-20T14:40:52;31.63;;;13.30;;
71969;SDS011;59838;52.152;5.436;2022-11-20T14:43:23;27.33;;;12.32;;
71969;SDS011;59838;52.152;5.436;2022-11-20T14:48:40;28.77;;;15.10;;
71969;SDS011;59838;52.152;5.436;2022-11-20T14:51:11;31.08;;;14.40;;
71969;SDS011;59838;52.152;5.436;2022-11-20T14:53:38;29.60;;;13.93;;
71969;SDS011;59838;52.152;5.436;2022-11-20T14:56:04;25.60;;;13.13;;
71969;SDS011;59838;52.152;5.436;2022-11-20T14:58:32;29.45;;;12.40;;
71969;SDS011;59838;52.152;5.436;2022-11-20T15:01:00;26.75;;;13.20;;
71969;SDS011;59838;52.152;5.436;2022-11-20T15:03:36;32.05;;;13.65;;
71969;SDS011;59838;52.152;5.436;2022-11-20T15:06:05;27.15;;;13.60;;
71969;SDS011;59838;52.152;5.436;2022-11-20T15:08:32;23.65;;;11.55;;
71969;SDS011;59838;52.152;5.436;2022-11-20T15:11:00;28.15;;;13.55;;
71969;SDS011;59838;52.152;5.436;2022-11-20T15:13:30;27.23;;;14.07;;
71969;SDS011;59838;52.152;5.436;2022-11-20T15:15:59;33.08;;;15.27;;
71969;SDS011;59838;52.152;5.436;2022-11-20T15:18:37;27.88;;;14.68;;
71969;SDS011;59838;52.152;5.436;2022-11-20T15:21:25;24.73;;;12.90;;
71969;SDS011;59838;52.152;5.436;2022-11-20T15:23:52;28.17;;;13.88;;
71969;SDS011;59838;52.152;5.436;2022-11-20T15:26:24;29.65;;;13.73;;
71969;SDS011;59838;52.152;5.436;2022-11-20T15:28:52;30.80;;;13.80;;
71969;SDS011;59838;52.152;5.436;2022-11-20T15:31:19;28.42;;;13.55;;
71969;SDS011;59838;52.152;5.436;2022-11-20T15:33:48;28.52;;;13.25;;
71969;SDS011;59838;52.152;5.436;2022-11-20T15:36:15;33.35;;;14.52;;
71969;SDS011;59838;52.152;5.436;2022-11-20T15:38:41;31.02;;;14.68;;
71969;SDS011;59838;52.152;5.436;2022-11-20T15:41:08;33.35;;;12.93;;
71969;SDS011;59838;52.152;5.436;2022-11-20T15:43:34;33.15;;;15.70;;
71969;SDS011;59838;52.152;5.436;2022-11-20T15:46:11;27.23;;;13.60;;
71969;SDS011;59838;52.152;5.436;2022-11-20T15:48:40;35.38;;;15.93;;
71969;SDS011;59838;52.152;5.436;2022-11-20T15:53:57;30.75;;;13.32;;
71969;SDS011;59838;52.152;5.436;2022-11-20T15:56:24;37.07;;;15.17;;
71969;SDS011;59838;52.152;5.436;2022-11-20T15:58:51;35.05;;;13.95;;
71969;SDS011;59838;52.152;5.436;2022-11-20T16:01:19;32.55;;;13.18;;
71969;SDS011;59838;52.152;5.436;2022-11-20T16:03:48;33.97;;;14.85;;
71969;SDS011;59838;52.152;5.436;2022-11-20T16:06:14;30.67;;;12.68;;
71969;SDS011;59838;52.152;5.436;2022-11-20T16:08:42;37.22;;;14.60;;
71969;SDS011;59838;52.152;5.436;2022-11-20T16:11:10;33.80;;;15.38;;
71969;SDS011;59838;52.152;5.436;2022-11-20T16:13:39;30.23;;;13.43;;